Due to severe server failure at the provider, not all demo sites are operational. Will take some days to rebuilt everything.

Demonstration site - Click on the  for more information

This is an optional block. Switch it on/off in your settings-file: $SITE['bannerTop'] = false; or $SITE['bannerBottom'] = false;

You can display ads, any other important text or photo’s using text / html or PHP code.

You can place one or more at the top and or bottom and it can all be different for content / size .



Visit our other weather sites:

Template documentation
and downloads

And another site



Nearby METAR Reports

   
EBAW - Antwerp
Updated: 22-09-2020 02:20
Clear  
Clear  
   Wind: NNW 5.6 km/h
Wind: NNW 5.6 km/h
Temperature: 14°C
Dew Point: 12°C
Humidity: 88%
Barometer: 1014 hPa
Clouds: Clear
Visibility: 5 km
Cloud details: Clear ft
EBAW 220020Z AUTO 33003KT 5000 // NCD 14/12 Q1014
EBLG - Liège
Updated: 22-09-2020 02:20
Clear  
Clear  
   Wind: varies 3.7 km/h
Wind: varies 3.7 km/h
Temperature: 14°C
Dew Point: 8°C
Humidity: 67%
Barometer: 1014 hPa
Visibility: More than 10 km
Cloud details: Clear ft
EBLG 220020Z VRB02KT CAVOK 14/08 Q1014 NOSIG
EBCV - Mons/Bergen
Updated: 22-09-2020 02:33
Mist, Clear  
Mist, Clear  
   Wind: varies 3.7 km/h
Wind: varies 3.7 km/h
Temperature: 9°C
Dew Point: 8°C
Humidity: 94%
Barometer: 1014 hPa
Clouds: Clear
Visibility: 4 km
Cloud details: Clear ft
EBCV 220033Z AUTO VRB02KT 3500 BR NCD 09/08 Q1014 YLO
EHBK - Maastricht
Updated: 22-09-2020 02:25
Clear  
Clear  
   Wind: SSW 7.4 km/h
Wind: SSW 7.4 km/h
Temperature: 12°C
Dew Point: 8°C
Humidity: 77%
Barometer: 1013 hPa
Clouds: Clear
Visibility: More than 10 km
Cloud details: Clear ft
EHBK 220025Z AUTO 20004KT 9999 NCD 12/08 Q1013
ELLX - Luxemburg
Updated: 22-09-2020 02:20
Clear  
Clear  
   Wind: varies 1.9 km/h
Wind: varies 1.9 km/h
Temperature: 15°C
Dew Point: 7°C
Humidity: 59%
Barometer: 1014 hPa
Clouds: Clear
Visibility: More than 10 km
Cloud details: Clear ft
ELLX 220020Z AUTO VRB01KT 9999 NCD 15/07 Q1014 NOSIG
EBOS - Oostende
Updated: 22-09-2020 02:20
Shallow Fog, Mist, Partly Cloudy  
Shallow Fog, Mist, Partly Cloudy  
   Wind: varies 1.9 km/h
Wind: varies 1.9 km/h
Temperature: 7°C
Dew Point: 7°C
Humidity: 100%
Barometer: 1014 hPa
Clouds: Partly Cloudy
Visibility: 2 km
Cloud details: Partly Cloudy ft
EBOS 220020Z VRB01KT 1500 R08/1700U R26/0400N MIFG BR NSC 07/07 Q1014 TEMPO 0400 FG

Script developed by  Saratoga-weather.org Adapted for the template by  Weerstation Leuven

This is an optional block. Switch it on/off in your settings-file: $SITE['bannerTop'] = false; or $SITE['bannerBottom'] = false;

You can display ads, any other important text or photo’s using text / html or PHP code.

You can place one or more at the top and or bottom and it can all be different for content / size .